createdAt,value
2017-11-13T00:00:04.553Z,1008.35
2017-11-13T00:05:02.995Z,1008.41
2017-11-13T00:10:03.074Z,1008.57
2017-11-13T00:15:02.748Z,1008.58
2017-11-13T00:20:03.452Z,1008.62
2017-11-13T00:25:02.954Z,1008.69
2017-11-13T00:30:03.610Z,1008.74
2017-11-13T00:35:03.343Z,1008.77
2017-11-13T00:40:02.957Z,1008.89
2017-11-13T00:45:03.453Z,1008.91
2017-11-13T00:50:02.918Z,1008.98
2017-11-13T00:55:03.458Z,1009.03
2017-11-13T01:00:03.034Z,1009.11
2017-11-13T01:05:03.060Z,1009.23
2017-11-13T01:10:02.834Z,1009.2
2017-11-13T01:15:03.535Z,1009.26
2017-11-13T01:20:03.172Z,1009.38
2017-11-13T01:25:02.885Z,1009.44
2017-11-13T01:30:03.561Z,1009.51
2017-11-13T01:35:03.255Z,1009.53
2017-11-13T01:40:02.775Z,1009.68
2017-11-13T01:45:03.356Z,1009.68
2017-11-13T01:50:02.926Z,1009.85
2017-11-13T01:55:03.587Z,1009.78
2017-11-13T02:00:03.205Z,1009.82
2017-11-13T02:05:02.806Z,1010.07
2017-11-13T02:10:03.469Z,1010.12
2017-11-13T02:15:02.873Z,1010.19
2017-11-13T02:20:03.550Z,1010.31
2017-11-13T02:25:03.095Z,1010.2
2017-11-13T02:30:03.584Z,1010.04
2017-11-13T02:35:03.139Z,1010.19
2017-11-13T02:40:02.868Z,1010.46
2017-11-13T02:45:03.345Z,1010.68
2017-11-13T02:50:03.081Z,1010.66
2017-11-13T02:55:03.621Z,1010.77
2017-11-13T03:00:03.327Z,1010.88
2017-11-13T03:05:02.995Z,1010.76
2017-11-13T03:10:02.789Z,1010.81
2017-11-13T03:15:03.358Z,1010.88
2017-11-13T03:20:03.081Z,1010.98
2017-11-13T03:25:02.765Z,1011.04
2017-11-13T03:30:03.482Z,1011.14
2017-11-13T03:35:03.066Z,1011.21
2017-11-13T03:40:02.770Z,1011.2
2017-11-13T03:45:03.424Z,1011.3
2017-11-13T03:50:03.001Z,1011.26
2017-11-13T03:55:03.509Z,1011.32
2017-11-13T04:00:03.032Z,1011.4
2017-11-13T04:05:02.811Z,1011.71
2017-11-13T04:10:03.378Z,1011.71
2017-11-13T04:15:03.114Z,1011.97
2017-11-13T04:20:02.825Z,1012.02
2017-11-13T04:25:03.474Z,1012.12
2017-11-13T04:30:03.024Z,1012.2
2017-11-13T04:35:03.589Z,1012.14
2017-11-13T04:40:03.355Z,1012.23
2017-11-13T04:45:02.976Z,1012.3
2017-11-13T04:50:03.639Z,1012.45
2017-11-13T04:55:03.090Z,1012.46
2017-11-13T05:00:03.535Z,1012.54
2017-11-13T05:05:03.007Z,1012.54
2017-11-13T05:10:03.718Z,1012.64
2017-11-13T05:15:03.444Z,1012.73
2017-11-13T05:20:03.026Z,1012.89
2017-11-13T05:25:03.636Z,1012.94
2017-11-13T05:30:02.884Z,1012.95
2017-11-13T05:35:03.586Z,1012.95
2017-11-13T05:40:03.259Z,1012.94
2017-11-13T05:45:02.995Z,1012.97
2017-11-13T05:50:03.511Z,1013.04
2017-11-13T05:55:03.050Z,1013.1
2017-11-13T06:00:03.615Z,1013.19
2017-11-13T06:05:03.228Z,1013.33
2017-11-13T06:10:02.709Z,1013.41
2017-11-13T06:15:03.376Z,1013.55
2017-11-13T06:20:02.872Z,1013.56
2017-11-13T06:25:03.383Z,1013.65
2017-11-13T06:35:03.510Z,1013.81
2017-11-13T06:40:03.161Z,1013.91
2017-11-13T06:45:02.755Z,1014.05
2017-11-13T06:50:03.469Z,1013.98
2017-11-13T06:55:03.098Z,1014.04
2017-11-13T07:00:02.826Z,1014.17
2017-11-13T07:05:03.479Z,1014.34
2017-11-13T07:10:03.185Z,1014.4
2017-11-13T07:15:03.664Z,1014.52
2017-11-13T07:20:03.353Z,1014.67
2017-11-13T07:25:02.859Z,1014.76
2017-11-13T07:30:03.417Z,1014.86
2017-11-13T07:35:02.855Z,1014.83
2017-11-13T07:40:03.527Z,1014.9
2017-11-13T07:45:03.154Z,1014.73
2017-11-13T07:50:02.917Z,1014.8
2017-11-13T07:55:03.455Z,1014.89
2017-11-13T08:00:03.139Z,1014.82
2017-11-13T08:05:02.822Z,1014.87
2017-11-13T08:10:03.407Z,1014.96
2017-11-13T08:15:02.933Z,1015.07
2017-11-13T08:20:03.542Z,1015.13
2017-11-13T08:25:03.191Z,1015.38
2017-11-13T08:30:02.932Z,1015.38
2017-11-13T08:35:03.488Z,1015.61
2017-11-13T08:40:03.108Z,1015.73
2017-11-13T08:45:03.615Z,1015.81
2017-11-13T08:50:03.055Z,1015.75
2017-11-13T08:55:03.578Z,1015.81
2017-11-13T09:00:03.111Z,1015.96
2017-11-13T09:05:02.816Z,1016.03
2017-11-13T09:10:03.513Z,1016.01
2017-11-13T09:15:03.117Z,1016.19
2017-11-13T09:20:02.845Z,1016.16
2017-11-13T09:25:03.550Z,1016.13
2017-11-13T09:30:03.010Z,1016.19
2017-11-13T09:35:03.725Z,1016.18
2017-11-13T09:40:03.435Z,1016.23
2017-11-13T09:45:03.135Z,1016.27
2017-11-13T09:50:04.073Z,1016.27
2017-11-13T09:55:03.725Z,1016.4
2017-11-13T10:00:03.514Z,1016.41
2017-11-13T10:05:03.393Z,1016.5
2017-11-13T10:10:03.093Z,1016.37
2017-11-13T10:15:02.833Z,1016.48
2017-11-13T10:20:03.654Z,1016.57
2017-11-13T10:25:03.387Z,1016.64
2017-11-13T10:30:03.182Z,1016.72
2017-11-13T10:35:02.908Z,1016.62
2017-11-13T10:40:03.538Z,1016.77
2017-11-13T10:45:03.270Z,1016.87
2017-11-13T10:50:03.143Z,1016.89
2017-11-13T10:55:03.768Z,1016.85
2017-11-13T11:00:03.564Z,1017.03
2017-11-13T11:05:03.648Z,1017.16
2017-11-13T11:10:03.387Z,1017.19
2017-11-13T11:15:03.006Z,1017.05
2017-11-13T11:20:03.767Z,1017.11
2017-11-13T11:25:03.644Z,1017.11
2017-11-13T11:30:03.494Z,1017.21
2017-11-13T11:35:03.236Z,1017.18
2017-11-13T11:40:03.139Z,1017.37
2017-11-13T11:45:03.752Z,1017.39
2017-11-13T11:50:03.637Z,1017.45
2017-11-13T11:55:03.396Z,1017.38
2017-11-13T12:00:03.105Z,1017.39
2017-11-13T12:05:02.961Z,1017.43
2017-11-13T12:10:03.766Z,1017.36
2017-11-13T12:15:03.671Z,1017.37
2017-11-13T12:20:03.462Z,1017.43
2017-11-13T12:25:03.292Z,1017.39
2017-11-13T12:30:03.143Z,1017.39
2017-11-13T12:35:03.836Z,1017.41
2017-11-13T12:40:03.737Z,1017.4
2017-11-13T12:45:03.674Z,1017.37
2017-11-13T12:50:03.393Z,1017.32
2017-11-13T12:55:03.120Z,1017.47
2017-11-13T13:00:02.995Z,1017.38
2017-11-13T13:05:02.991Z,1017.43
2017-11-13T13:10:03.715Z,1017.53
2017-11-13T13:15:03.598Z,1017.55
2017-11-13T13:20:03.243Z,1017.65
2017-11-13T13:25:03.106Z,1017.66
2017-11-13T13:30:02.975Z,1017.7
2017-11-13T13:35:03.764Z,1017.73
2017-11-13T13:40:03.728Z,1017.73
2017-11-13T13:45:03.607Z,1017.8
2017-11-13T13:50:03.503Z,1017.82
2017-11-13T13:55:03.315Z,1017.89
2017-11-13T14:00:03.332Z,1017.85
2017-11-13T14:05:03.210Z,1017.92
2017-11-13T14:10:03.002Z,1017.92
2017-11-13T14:15:02.930Z,1017.99
2017-11-13T14:20:03.822Z,1018.25
2017-11-13T14:25:03.504Z,1018.19
2017-11-13T14:30:03.363Z,1018.29
2017-11-13T14:35:03.187Z,1018.29
2017-11-13T14:40:03.058Z,1018.43
2017-11-13T14:45:02.955Z,1018.54
2017-11-13T14:50:02.903Z,1018.58
2017-11-13T14:55:03.543Z,1018.63
2017-11-13T15:00:03.225Z,1018.72
2017-11-13T15:05:03.101Z,1018.67
2017-11-13T15:10:02.830Z,1018.75
2017-11-13T15:15:03.376Z,1018.77
2017-11-13T15:20:03.078Z,1018.81
2017-11-13T15:25:03.657Z,1018.92
2017-11-13T15:30:03.192Z,1019.04
2017-11-13T15:35:03.663Z,1019
2017-11-13T15:40:03.189Z,1018.97
2017-11-13T15:45:03.693Z,1018.94
2017-11-13T15:50:03.358Z,1019
2017-11-13T15:55:02.859Z,1019.09
2017-11-13T16:00:03.407Z,1019.2
2017-11-13T16:05:02.932Z,1019.31
2017-11-13T16:10:03.587Z,1019.35
2017-11-13T16:15:03.157Z,1019.45
2017-11-13T16:20:02.809Z,1019.38
2017-11-13T16:25:03.350Z,1019.47
2017-11-13T16:30:02.872Z,1019.46
2017-11-13T16:35:03.509Z,1019.46
2017-11-13T16:40:03.054Z,1019.48
2017-11-13T16:45:03.571Z,1019.58
2017-11-13T16:50:03.047Z,1019.56
2017-11-13T16:55:03.560Z,1019.7
2017-11-13T17:00:03.291Z,1019.68
2017-11-13T17:05:02.974Z,1019.77
2017-11-13T17:10:03.614Z,1019.87
2017-11-13T17:15:03.314Z,1019.9
2017-11-13T17:20:02.912Z,1019.97
2017-11-13T17:25:03.445Z,1020.06
2017-11-13T17:30:03.008Z,1020.13
2017-11-13T17:35:03.678Z,1020.2
2017-11-13T17:40:03.152Z,1020.25
2017-11-13T17:45:02.787Z,1020.43
2017-11-13T17:50:03.339Z,1020.45
2017-11-13T17:55:02.823Z,1020.52
2017-11-13T18:00:03.515Z,1020.49
2017-11-13T18:05:03.051Z,1020.55
2017-11-13T18:10:03.650Z,1020.53
2017-11-13T18:15:03.316Z,1020.55
2017-11-13T18:20:03.062Z,1020.57
2017-11-13T18:25:02.787Z,1020.58
2017-11-13T18:30:03.312Z,1020.64
2017-11-13T18:35:02.993Z,1020.64
2017-11-13T18:40:03.541Z,1020.68
2017-11-13T18:45:02.999Z,1020.66
2017-11-13T18:50:02.726Z,1020.78
2017-11-13T18:55:03.358Z,1020.79
2017-11-13T19:00:03.033Z,1020.82
2017-11-13T19:05:02.758Z,1020.92
2017-11-13T19:10:03.461Z,1020.85
2017-11-13T19:15:02.956Z,1020.99
2017-11-13T19:20:03.642Z,1021.02
2017-11-13T19:25:03.159Z,1020.94
2017-11-13T19:30:02.806Z,1020.97
2017-11-13T19:35:03.568Z,1020.97
2017-11-13T19:40:03.332Z,1021.04
2017-11-13T19:45:03.053Z,1021.07
2017-11-13T19:50:03.623Z,1021.06
2017-11-13T19:55:03.160Z,1021.09
2017-11-13T20:00:03.682Z,1021.1
2017-11-13T20:05:03.238Z,1021.1
2017-11-13T20:10:02.763Z,1021.22
2017-11-13T20:15:03.250Z,1021.31
2017-11-13T20:20:02.938Z,1021.35
2017-11-13T20:25:03.418Z,1021.43
2017-11-13T20:30:03.009Z,1021.49
2017-11-13T20:40:03.442Z,1021.6
2017-11-13T20:45:03.683Z,1021.59
2017-11-13T20:50:03.287Z,1021.7
2017-11-13T20:55:02.900Z,1021.71
2017-11-13T21:00:03.405Z,1021.77
2017-11-13T21:05:03.041Z,1021.71
2017-11-13T21:10:03.606Z,1021.78
2017-11-13T21:15:03.058Z,1021.73
2017-11-13T21:20:03.693Z,1021.73
2017-11-13T21:25:03.223Z,1021.76
2017-11-13T21:30:03.708Z,1021.75
2017-11-13T21:35:03.449Z,1021.84
2017-11-13T21:40:03.149Z,1021.95
2017-11-13T21:45:03.711Z,1021.99
2017-11-13T21:50:03.424Z,1021.9
2017-11-13T21:55:03.093Z,1021.99
2017-11-13T22:00:03.765Z,1021.96
2017-11-13T22:05:03.326Z,1021.94
2017-11-13T22:10:03.039Z,1021.97
2017-11-13T22:15:03.668Z,1021.94
2017-11-13T22:20:03.451Z,1022
2017-11-13T22:25:03.107Z,1022.04
2017-11-13T22:30:03.927Z,1022
2017-11-13T22:35:03.507Z,1022.01
2017-11-13T22:40:03.096Z,1022.01
2017-11-13T22:45:03.657Z,1022.04
2017-11-13T22:50:03.317Z,1022.01
2017-11-13T22:55:03.024Z,1022.09
2017-11-13T23:00:03.668Z,1022.15
2017-11-13T23:05:03.322Z,1022.08
2017-11-13T23:10:02.904Z,1022.15
2017-11-13T23:15:03.562Z,1022.11
2017-11-13T23:20:03.050Z,1022.17
2017-11-13T23:25:02.831Z,1022.16
2017-11-13T23:30:03.387Z,1022.13
2017-11-13T23:35:03.027Z,1022.12
2017-11-13T23:40:03.588Z,1022.06
2017-11-13T23:45:03.200Z,1022.01
2017-11-13T23:50:02.890Z,1022
2017-11-13T23:55:03.570Z,1022.09
